Time;durP1;ratioP1;P1;durP2;ratioP2;P2;SDS_P1;SDS_P2;PMS_P1;PMS_P2;Temp;Humidity;BMP_temperature;BMP_pressure;BME280_temperature;BME280_humidity;BME280_pressure;Samples;Min_cycle;Max_cycle;Signal;HPM_P1;HPM_P2
2021/08/23 00:00:07;;;;;;;57.00;44.17;;;;;;;17.67;83.98;102155.59;5086571;28;20211;-75
2021/08/23 00:02:33;;;;;;;56.63;42.13;;;;;;;17.50;84.58;102150.06;5085250;28;20236;-75
2021/08/23 00:05:01;;;;;;;59.00;43.00;;;;;;;17.66;83.90;102149.38;5084018;28;20651;-75
2021/08/23 00:07:28;;;;;;;58.07;39.87;;;;;;;17.55;83.66;102155.59;5084022;28;20217;-75
2021/08/23 00:09:54;;;;;;;53.80;37.77;;;;;;;17.44;84.10;102157.25;5084860;28;20235;-75
2021/08/23 00:12:21;;;;;;;45.47;35.60;;;;;;;17.19;84.31;102159.38;5082320;28;20251;-75
2021/08/23 00:14:47;;;;;;;42.87;34.30;;;;;;;17.36;83.56;102169.22;5084232;28;20710;-75
2021/08/23 00:17:14;;;;;;;41.07;33.57;;;;;;;17.41;83.27;102167.72;5083371;28;20289;-75
2021/08/23 00:19:40;;;;;;;39.57;31.30;;;;;;;17.32;84.14;102172.66;5084224;28;20276;-75
2021/08/23 00:22:22;;;;;;;33.93;29.83;;;;;;;17.45;82.49;102171.59;5082058;28;20289;-75
2021/08/23 00:24:49;;;;;;;36.27;29.97;;;;;;;17.56;82.94;102177.00;5083153;28;20227;-75
2021/08/23 00:27:15;;;;;;;32.67;27.63;;;;;;;17.78;81.00;102182.59;5082516;28;20219;-75
2021/08/23 00:29:42;;;;;;;36.37;28.87;;;;;;;17.42;82.36;102186.41;5084608;28;20223;-75
2021/08/23 00:32:08;;;;;;;34.33;29.20;;;;;;;17.71;81.58;102186.50;5084430;28;20209;-75
2021/08/23 00:34:34;;;;;;;35.03;30.43;;;;;;;17.81;81.23;102192.16;5084140;28;20614;-75
2021/08/23 00:37:01;;;;;;;35.37;30.60;;;;;;;18.09;80.09;102188.66;5084481;28;20659;-75
2021/08/23 00:39:28;;;;;;;35.87;30.20;;;;;;;18.07;80.58;102196.19;5082787;28;20262;-75
2021/08/23 00:41:55;;;;;;;36.53;31.23;;;;;;;17.75;81.40;102193.91;5081900;28;20631;-75
2021/08/23 00:44:21;;;;;;;37.90;31.73;;;;;;;17.83;81.54;102198.13;5085095;28;20276;-75
2021/08/23 00:46:48;;;;;;;39.87;31.87;;;;;;;17.75;81.50;102201.19;5081989;28;20302;-75
2021/08/23 00:49:14;;;;;;;42.20;33.03;;;;;;;17.54;82.05;102208.00;5079676;28;20216;-75
2021/08/23 00:51:41;;;;;;;43.10;32.83;;;;;;;17.42;82.43;102207.19;5083418;28;20215;-76
2021/08/23 00:54:07;;;;;;;42.23;33.93;;;;;;;17.20;82.92;102215.88;5083076;28;20728;-76
2021/08/23 00:56:35;;;;;;;40.07;33.80;;;;;;;17.46;82.00;102211.06;5083044;28;20216;-75
2021/08/23 00:59:08;;;;;;;41.37;33.50;;;;;;;17.26;82.43;102220.31;5083323;28;20726;-75
2021/08/23 01:01:41;;;;;;;36.07;32.17;;;;;;;17.18;82.56;102211.75;5084679;28;20671;-75
2021/08/23 01:04:11;;;;;;;37.03;31.07;;;;;;;17.13;82.85;102217.84;5081194;28;20227;-76
2021/08/23 01:06:37;;;;;;;34.60;30.80;;;;;;;17.02;82.51;102224.91;5082184;28;20257;-76
2021/08/23 01:09:06;;;;;;;36.67;29.70;;;;;;;16.98;82.63;102220.16;5083760;28;20279;-76
2021/08/23 01:11:37;;;;;;;35.20;30.43;;;;;;;17.20;82.09;102225.84;5085659;28;20237;-76
2021/08/23 01:14:03;;;;;;;34.43;29.30;;;;;;;17.26;81.87;102224.91;5082078;28;20310;-75
2021/08/23 01:16:30;;;;;;;33.00;27.87;;;;;;;17.36;81.11;102235.97;5082716;28;20215;-75
2021/08/23 01:18:56;;;;;;;32.60;28.03;;;;;;;17.32;80.86;102237.50;5081898;28;20246;-75
2021/08/23 01:21:27;;;;;;;31.77;28.37;;;;;;;17.30;81.08;102236.91;5084251;28;20208;-76
2021/08/23 01:23:55;;;;;;;27.30;24.17;;;;;;;17.30;80.84;102251.22;5082952;28;20251;-76
2021/08/23 01:26:25;;;;;;;28.77;25.83;;;;;;;17.41;80.69;102251.47;5081624;28;20213;-76
2021/08/23 01:28:59;;;;;;;27.60;24.70;;;;;;;17.38;79.90;102244.66;5082284;28;20226;-76
2021/08/23 01:31:32;;;;;;;23.87;21.50;;;;;;;17.26;80.18;102258.13;5082130;28;20208;-75
2021/08/23 01:34:00;;;;;;;21.77;19.57;;;;;;;17.17;80.27;102262.25;5080815;28;20261;-76
2021/08/23 01:36:28;;;;;;;23.93;21.37;;;;;;;17.35;79.52;102264.03;5081991;28;20720;-76
2021/08/23 01:38:54;;;;;;;21.80;19.60;;;;;;;17.29;79.63;102262.28;5081963;28;20759;-76
2021/08/23 01:41:21;;;;;;;23.43;21.03;;;;;;;17.22;79.90;102264.25;5082654;28;20222;-75
2021/08/23 01:43:47;;;;;;;22.17;19.80;;;;;;;17.36;79.22;102273.78;5084909;28;20782;-75
2021/08/23 01:46:14;;;;;;;22.93;20.47;;;;;;;17.30;79.35;102272.03;5083554;28;20257;-75
2021/08/23 01:48:40;;;;;;;21.03;18.83;;;;;;;17.27;79.49;102273.28;5083803;28;20210;-75
2021/08/23 01:51:08;;;;;;;20.53;18.33;;;;;;;17.14;80.15;102278.91;5081851;28;20260;-75
2021/08/23 01:53:34;;;;;;;21.67;18.67;;;;;;;17.43;79.09;102277.22;5082023;28;20232;-76
2021/08/23 01:56:01;;;;;;;19.37;17.30;;;;;;;17.07;79.93;102278.19;5082955;28;20216;-76
2021/08/23 01:58:28;;;;;;;19.20;17.20;;;;;;;17.06;80.35;102281.94;5081803;28;20225;-76
2021/08/23 02:00:55;;;;;;;20.27;17.97;;;;;;;16.96;80.62;102273.59;5083837;28;20214;-75
2021/08/23 02:03:21;;;;;;;22.23;19.90;;;;;;;17.34;79.50;102275.91;5083153;28;20879;-76
2021/08/23 02:05:48;;;;;;;21.37;19.17;;;;;;;17.39;79.16;102280.59;5080679;28;20268;-76
2021/08/23 02:08:16;;;;;;;21.73;19.53;;;;;;;17.59;78.47;102276.50;5081667;28;20232;-76
2021/08/23 02:10:42;;;;;;;20.93;18.73;;;;;;;17.45;78.89;102288.59;5082198;28;20207;-76
2021/08/23 02:13:08;;;;;;;20.30;18.23;;;;;;;17.44;78.91;102286.13;5081280;28;20216;-76
2021/08/23 02:15:35;;;;;;;18.87;16.87;;;;;;;17.58;78.46;102279.44;5085098;28;20848;-76
2021/08/23 02:18:01;;;;;;;22.23;18.60;;;;;;;17.63;78.38;102284.97;5080901;28;20273;-76
2021/08/23 02:20:28;;;;;;;19.83;17.77;;;;;;;17.59;78.69;102286.50;5081740;28;20218;-76
2021/08/23 02:22:54;;;;;;;20.47;18.33;;;;;;;17.42;78.80;102289.06;5083181;28;20318;-76
2021/08/23 02:25:22;;;;;;;23.57;17.33;;;;;;;17.55;79.28;102301.53;5080251;28;20212;-76
2021/08/23 02:27:49;;;;;;;21.30;17.67;;;;;;;17.41;79.25;102302.81;5085394;28;20323;-76
2021/08/23 02:30:16;;;;;;;20.63;17.27;;;;;;;17.42;79.81;102301.75;5083142;28;20247;-76
2021/08/23 02:32:42;;;;;;;21.20;16.97;;;;;;;17.55;79.27;102298.84;5079523;28;20250;-76
2021/08/23 02:35:09;;;;;;;20.70;16.50;;;;;;;17.46;79.66;102306.47;5083198;28;20643;-76
2021/08/23 02:37:36;;;;;;;17.63;15.17;;;;;;;17.57;79.43;102310.22;5080538;28;20252;-76
2021/08/23 02:40:03;;;;;;;22.83;16.60;;;;;;;17.52;79.89;102304.69;5080910;28;20305;-76
2021/08/23 02:42:31;;;;;;;17.47;15.57;;;;;;;17.43;79.86;102306.94;5083510;28;20809;-76
2021/08/23 02:44:57;;;;;;;17.80;15.23;;;;;;;17.36;80.20;102307.03;5081694;28;20277;-75
2021/08/23 02:47:24;;;;;;;18.00;15.40;;;;;;;17.29;80.70;102314.44;5082639;28;20208;-76
2021/08/23 02:49:50;;;;;;;21.97;16.13;;;;;;;17.53;79.82;102318.00;5084774;28;20219;-76
2021/08/23 02:52:16;;;;;;;20.53;15.47;;;;;;;17.67;79.33;102317.78;5081781;28;20658;-76
2021/08/23 02:54:43;;;;;;;20.47;15.87;;;;;;;17.42;79.91;102318.78;5086640;28;20297;-75
2021/08/23 02:57:09;;;;;;;18.60;14.70;;;;;;;17.60;79.16;102326.81;5083123;28;20224;-75
2021/08/23 02:59:37;;;;;;;18.77;14.23;;;;;;;17.60;79.06;102323.28;5081305;28;20691;-76
2021/08/23 03:02:04;;;;;;;16.20;13.23;;;;;;;17.27;79.24;102321.91;5082491;28;20217;-75
2021/08/23 03:04:30;;;;;;;15.07;12.77;;;;;;;17.35;79.95;102331.56;5083686;28;20240;-75
2021/08/23 03:06:56;;;;;;;16.60;12.50;;;;;;;17.29;79.60;102330.63;5081928;28;20222;-75
2021/08/23 03:09:23;;;;;;;13.47;11.40;;;;;;;17.38;79.29;102344.63;5082971;28;20236;-75
2021/08/23 03:11:49;;;;;;;17.23;12.43;;;;;;;17.54;78.61;102332.31;5082052;28;20644;-75
2021/08/23 03:14:15;;;;;;;15.93;12.50;;;;;;;17.54;78.22;102343.13;5083822;28;20225;-76
2021/08/23 03:16:43;;;;;;;12.67;11.10;;;;;;;17.30;79.42;102345.78;5083535;28;20265;-76
2021/08/23 03:19:09;;;;;;;14.73;11.40;;;;;;;17.36;79.41;102347.53;5083065;28;20729;-75
2021/08/23 03:21:36;;;;;;;14.10;12.70;;;;;;;17.53;78.61;102354.97;5083579;28;20212;-76
2021/08/23 03:24:02;;;;;;;15.33;11.97;;;;;;;17.66;78.39;102357.50;5084188;28;20235;-76
2021/08/23 03:26:29;;;;;;;13.33;11.17;;;;;;;17.55;78.87;102353.72;5084047;28;20220;-76
2021/08/23 03:28:56;;;;;;;14.53;11.60;;;;;;;17.65;78.81;102358.53;5084367;28;20306;-76
2021/08/23 03:31:22;;;;;;;15.27;11.70;;;;;;;17.91;77.93;102360.00;5080441;28;20216;-76
2021/08/23 03:33:50;;;;;;;15.77;11.83;;;;;;;17.74;78.20;102356.34;5083935;28;20660;-75
2021/08/23 03:36:16;;;;;;;18.43;12.27;;;;;;;17.86;78.00;102365.28;5084461;28;20216;-76
2021/08/23 03:38:47;;;;;;;15.13;12.13;;;;;;;17.87;77.63;102356.13;5083972;28;20760;-75
2021/08/23 03:41:13;;;;;;;15.93;11.37;;;;;;;17.99;77.69;102362.34;5085708;28;21058;-75
2021/08/23 03:43:40;;;;;;;17.40;12.27;;;;;;;18.08;77.53;102368.25;5085827;28;20289;-76
2021/08/23 03:46:06;;;;;;;17.27;12.97;;;;;;;17.87;78.32;102367.75;5083684;28;20225;-75
2021/08/23 03:48:32;;;;;;;13.03;11.43;;;;;;;17.67;78.84;102369.94;5083174;28;20666;-75
2021/08/23 03:51:00;;;;;;;16.07;12.03;;;;;;;17.89;78.49;102370.22;5086168;28;20280;-75
2021/08/23 03:53:26;;;;;;;15.57;11.07;;;;;;;17.79;78.42;102368.13;5084541;28;20231;-75
2021/08/23 03:55:53;;;;;;;13.40;10.80;;;;;;;17.83;78.30;102374.69;5083938;28;20651;-76
2021/08/23 03:58:19;;;;;;;13.23;10.03;;;;;;;17.83;78.51;102373.88;5082687;28;20226;-75
2021/08/23 04:00:46;;;;;;;14.33;10.07;;;;;;;17.85;78.37;102374.47;5083327;28;20236;-75
2021/08/23 04:03:12;;;;;;;15.27;10.10;;;;;;;17.88;77.87;102376.69;5084388;28;20248;-75
2021/08/23 04:05:38;;;;;;;11.00;8.50;;;;;;;17.65;78.78;102375.56;5083613;28;20679;-77
2021/08/23 04:08:06;;;;;;;11.97;8.37;;;;;;;17.74;77.90;102383.38;5083638;28;20286;-75
2021/08/23 04:10:33;;;;;;;10.63;8.33;;;;;;;17.88;77.16;102380.22;5083791;28;20221;-75
2021/08/23 04:12:59;;;;;;;12.77;9.23;;;;;;;17.90;77.76;102383.50;5086495;28;20610;-75
2021/08/23 04:15:25;;;;;;;16.87;8.90;;;;;;;17.71;77.89;102376.56;5084057;28;20254;-75
2021/08/23 04:17:52;;;;;;;10.17;8.40;;;;;;;17.58;78.37;102390.25;5082396;28;20308;-75
2021/08/23 04:20:18;;;;;;;10.97;8.23;;;;;;;17.81;77.56;102381.41;5083887;28;20242;-73
2021/08/23 04:22:44;;;;;;;13.23;8.17;;;;;;;17.80;77.37;102387.88;5082476;28;20659;-73
2021/08/23 04:25:12;;;;;;;9.63;7.47;;;;;;;17.86;77.52;102393.16;5083094;28;20240;-73
2021/08/23 04:27:39;;;;;;;9.73;7.83;;;;;;;17.64;77.56;102394.72;5084871;28;20209;-73
2021/08/23 04:30:06;;;;;;;9.13;7.90;;;;;;;17.69;77.72;102399.47;5082536;28;20263;-74
2021/08/23 04:32:32;;;;;;;10.97;8.40;;;;;;;17.59;78.49;102397.31;5088775;28;20227;-81
2021/08/23 04:34:59;;;;;;;11.50;7.63;;;;;;;17.69;77.86;102404.88;5092303;28;20209;-81
2021/08/23 04:37:25;;;;;;;12.40;8.47;;;;;;;17.78;77.68;102403.47;5091901;28;20242;-80
2021/08/23 04:39:52;;;;;;;10.17;7.60;;;;;;;17.71;77.38;102405.47;5087162;28;20226;-81
2021/08/23 04:42:19;;;;;;;13.23;9.07;;;;;;;17.54;78.39;102416.94;5091819;28;20218;-80
2021/08/23 04:44:46;;;;;;;13.50;8.77;;;;;;;17.68;77.80;102419.44;5093006;28;20242;-80
2021/08/23 04:47:13;;;;;;;9.93;8.10;;;;;;;17.88;77.26;102409.97;5091685;28;20809;-81
2021/08/23 04:49:39;;;;;;;10.47;7.37;;;;;;;17.80;76.88;102423.00;5088313;28;20240;-81
2021/08/23 04:52:06;;;;;;;12.97;7.73;;;;;;;17.92;76.08;102421.16;5091771;28;20232;-81
2021/08/23 04:54:33;;;;;;;12.30;7.37;;;;;;;17.90;76.25;102425.94;5090157;28;20228;-80
2021/08/23 04:56:59;;;;;;;12.60;6.87;;;;;;;17.83;76.46;102417.97;5088599;28;20222;-83
2021/08/23 04:59:27;;;;;;;10.63;6.53;;;;;;;17.86;75.76;102431.00;5086819;28;20273;-83
2021/08/23 05:01:53;;;;;;;12.00;6.30;;;;;;;17.87;76.09;102429.13;5089034;28;20215;-83
2021/08/23 05:04:20;;;;;;;9.07;5.67;;;;;;;17.59;76.97;102432.44;5090084;28;20262;-83
2021/08/23 05:06:46;;;;;;;8.27;5.60;;;;;;;17.76;76.42;102443.44;5088602;28;20210;-83
2021/08/23 05:09:12;;;;;;;7.93;5.70;;;;;;;17.83;76.09;102433.34;5090603;28;20236;-82
2021/08/23 05:11:39;;;;;;;7.23;5.37;;;;;;;17.73;76.41;102441.22;5087643;28;20212;-83
2021/08/23 05:14:05;;;;;;;9.40;6.30;;;;;;;17.81;76.06;102447.13;5090943;28;20251;-83
2021/08/23 05:16:33;;;;;;;13.37;6.27;;;;;;;17.74;76.79;102449.09;5092572;28;20577;-83
2021/08/23 05:19:00;;;;;;;8.10;5.70;;;;;;;17.57;76.74;102451.59;5089758;28;20363;-83
2021/08/23 05:21:26;;;;;;;9.00;5.83;;;;;;;17.87;75.57;102467.81;5090032;28;20228;-83
2021/08/23 05:23:52;;;;;;;9.77;6.00;;;;;;;17.71;75.49;102463.06;5091356;28;20236;-83
2021/08/23 05:26:19;;;;;;;9.17;5.87;;;;;;;17.68;75.40;102458.09;5088847;28;20208;-83
2021/08/23 05:28:45;;;;;;;9.57;5.50;;;;;;;17.57;76.43;102465.13;5086475;28;20220;-83
2021/08/23 05:31:12;;;;;;;10.17;5.43;;;;;;;17.46;76.18;102463.19;5088307;28;21020;-83
2021/08/23 05:33:39;;;;;;;8.07;5.20;;;;;;;17.88;75.41;102476.75;5088064;28;20312;-83
2021/08/23 05:36:06;;;;;;;7.60;5.03;;;;;;;17.93;75.08;102474.19;5092604;28;20212;-82
2021/08/23 05:38:32;;;;;;;12.30;5.20;;;;;;;18.00;74.55;102483.00;5090535;28;20230;-82
2021/08/23 05:40:59;;;;;;;7.07;5.23;;;;;;;18.06;74.36;102489.38;5088617;28;20215;-83
2021/08/23 05:43:25;;;;;;;8.33;5.00;;;;;;;18.02;74.78;102480.88;5090749;28;20207;-82
2021/08/23 05:45:52;;;;;;;14.07;5.30;;;;;;;17.91;74.69;102495.19;5094675;28;20216;-83
2021/08/23 05:48:18;;;;;;;6.27;4.30;;;;;;;17.89;75.78;102497.31;5090637;28;20666;-82
2021/08/23 05:50:46;;;;;;;5.90;4.13;;;;;;;18.03;74.55;102492.53;5089441;28;20227;-82
2021/08/23 05:53:12;;;;;;;9.80;4.87;;;;;;;18.17;73.67;102496.69;5094142;28;20250;-81
2021/08/23 05:55:39;;;;;;;8.70;5.20;;;;;;;18.09;73.36;102497.03;5097210;28;20217;-81
2021/08/23 05:58:05;;;;;;;7.57;4.27;;;;;;;17.97;73.64;102493.47;5091770;28;20227;-81
2021/08/23 06:00:32;;;;;;;7.83;4.27;;;;;;;18.06;74.17;102501.03;5086736;28;20218;-81
2021/08/23 06:02:58;;;;;;;5.67;3.87;;;;;;;18.27;72.62;102502.31;5091725;28;20602;-82
2021/08/23 06:05:25;;;;;;;6.97;4.23;;;;;;;18.06;73.43;102513.72;5090446;28;20235;-81
2021/08/23 06:07:52;;;;;;;6.60;4.10;;;;;;;18.13;73.32;102509.00;5089322;28;20211;-81
2021/08/23 06:10:19;;;;;;;6.03;3.67;;;;;;;18.12;74.03;102510.06;5089906;28;20208;-81
2021/08/23 06:12:46;;;;;;;5.23;3.57;;;;;;;18.28;72.62;102512.09;5090478;28;20215;-81
2021/08/23 06:15:13;;;;;;;5.03;3.83;;;;;;;18.33;72.18;102523.06;5088408;28;20326;-81
2021/08/23 06:17:39;;;;;;;4.80;3.93;;;;;;;18.90;70.55;102517.06;5090105;28;20663;-81
2021/08/23 06:20:08;;;;;;;6.83;4.07;;;;;;;19.02;70.45;102516.00;5088753;28;20215;-81
2021/08/23 06:22:37;;;;;;;6.70;4.00;;;;;;;18.88;71.21;102521.91;5088768;28;20583;-80
2021/08/23 06:25:05;;;;;;;5.47;3.70;;;;;;;18.98;69.95;102522.97;5089518;28;20237;-81
2021/08/23 06:27:32;;;;;;;6.13;3.63;;;;;;;19.07;69.39;102526.94;5087775;28;20207;-80
2021/08/23 06:29:58;;;;;;;6.40;3.80;;;;;;;19.23;69.03;102529.97;5088266;28;20231;-80
2021/08/23 06:32:24;;;;;;;6.83;3.53;;;;;;;19.03;69.54;102519.53;5086007;28;20232;-80
2021/08/23 06:34:51;;;;;;;5.03;3.70;;;;;;;19.18;70.13;102522.53;5090902;28;20214;-80
2021/08/23 06:37:18;;;;;;;7.73;3.83;;;;;;;18.98;69.10;102528.38;5089652;28;20218;-81
2021/08/23 06:39:45;;;;;;;9.17;3.40;;;;;;;18.65;70.53;102523.56;5090285;28;20234;-80
2021/08/23 06:42:13;;;;;;;7.27;3.20;;;;;;;18.94;69.55;102520.97;5089957;28;20217;-81
2021/08/23 06:44:40;;;;;;;8.20;3.37;;;;;;;18.75;70.30;102529.22;5087152;28;20240;-81
2021/08/23 06:47:06;;;;;;;6.30;3.63;;;;;;;18.98;69.67;102519.44;5087317;28;20222;-81
2021/08/23 06:49:33;;;;;;;7.50;3.57;;;;;;;18.85;69.34;102523.22;5089491;28;20652;-80
2021/08/23 06:51:59;;;;;;;5.30;3.27;;;;;;;19.16;68.25;102530.09;5092521;28;20781;-81
2021/08/23 06:54:26;;;;;;;5.43;3.43;;;;;;;19.24;67.94;102524.31;5090916;28;20731;-80
2021/08/23 06:56:52;;;;;;;8.20;3.67;;;;;;;18.95;68.81;102525.31;5093709;28;20301;-81
2021/08/23 06:59:20;;;;;;;5.83;3.40;;;;;;;19.33;68.23;102531.00;5092299;28;20247;-80
2021/08/23 07:01:46;;;;;;;9.63;4.00;;;;;;;19.09;69.81;102529.41;5094776;28;20247;-80
2021/08/23 07:04:13;;;;;;;8.00;3.23;;;;;;;19.11;68.56;102536.25;5091226;28;20796;-80
2021/08/23 07:06:39;;;;;;;6.67;3.87;;;;;;;19.48;68.92;102538.63;5091297;28;20219;-80
2021/08/23 07:09:06;;;;;;;7.17;3.03;;;;;;;19.75;67.77;102532.66;5093184;28;20567;-81
2021/08/23 07:11:32;;;;;;;7.50;3.13;;;;;;;19.98;66.88;102536.06;5095590;28;20261;-81
2021/08/23 07:13:58;;;;;;;6.67;3.37;;;;;;;19.36;66.88;102545.97;5091520;28;20237;-80
2021/08/23 07:16:26;;;;;;;9.00;3.90;;;;;;;19.19;68.78;102540.47;5096336;28;20213;-81
2021/08/23 07:18:53;;;;;;;5.07;2.97;;;;;;;19.50;68.38;102541.91;5094079;28;20776;-81
2021/08/23 07:21:19;;;;;;;11.53;3.20;;;;;;;19.88;67.68;102548.63;5093142;28;20202;-81
2021/08/23 07:23:46;;;;;;;6.20;3.03;;;;;;;19.29;68.61;102548.78;5093921;28;20230;-82
2021/08/23 07:26:12;;;;;;;6.87;3.20;;;;;;;19.55;68.00;102546.63;5095636;28;20576;-81
2021/08/23 07:28:38;;;;;;;5.40;3.27;;;;;;;19.68;66.80;102549.88;5096035;28;20205;-81
2021/08/23 07:31:05;;;;;;;5.17;3.73;;;;;;;19.87;65.97;102547.81;5090353;28;20221;-80
2021/08/23 07:33:37;;;;;;;7.07;3.70;;;;;;;20.14;66.92;102558.88;5092741;28;20205;-81
2021/08/23 07:36:04;;;;;;;6.77;3.50;;;;;;;19.62;67.38;102560.88;5089420;28;20214;-82
2021/08/23 07:38:30;;;;;;;5.77;3.37;;;;;;;19.93;68.73;102559.56;5090038;28;20861;-81
2021/08/23 07:40:57;;;;;;;7.67;3.40;;;;;;;20.06;67.04;102558.44;5091536;28;20251;-82
2021/08/23 07:43:23;;;;;;;6.63;3.50;;;;;;;20.06;66.80;102556.53;5092552;28;20216;-82
2021/08/23 07:45:50;;;;;;;6.67;3.17;;;;;;;20.52;66.57;102560.06;5094212;28;20239;-82
2021/08/23 07:48:16;;;;;;;8.50;3.53;;;;;;;20.77;64.78;102565.88;5093273;28;20221;-82
2021/08/23 07:50:44;;;;;;;10.63;3.60;;;;;;;20.98;63.54;102572.44;5095993;28;20213;-82
2021/08/23 07:53:11;;;;;;;5.40;3.67;;;;;;;21.22;62.45;102573.03;5095516;28;20225;-82
2021/08/23 07:55:37;;;;;;;4.07;3.13;;;;;;;19.52;66.67;102572.31;5094969;28;20210;-83
2021/08/23 07:58:04;;;;;;;5.43;3.60;;;;;;;20.16;65.33;102569.47;5093918;28;20197;-82
2021/08/23 08:00:30;;;;;;;6.47;3.80;;;;;;;19.84;65.50;102571.88;5092112;28;20694;-81
2021/08/23 08:02:57;;;;;;;5.77;3.70;;;;;;;19.83;65.96;102564.81;5092838;28;20217;-81
2021/08/23 08:05:23;;;;;;;7.47;3.57;;;;;;;20.09;65.49;102566.09;5092471;28;20287;-82
2021/08/23 08:07:51;;;;;;;5.40;3.30;;;;;;;20.13;65.19;102568.06;5094433;28;20208;-81
2021/08/23 08:10:17;;;;;;;5.80;3.00;;;;;;;20.51;63.50;102575.53;5095963;28;20222;-81
2021/08/23 08:12:44;;;;;;;5.83;2.77;;;;;;;20.74;62.98;102574.53;5092659;28;20674;-81
2021/08/23 08:15:12;;;;;;;12.60;2.73;;;;;;;20.29;63.08;102569.16;5093004;28;20240;-81
2021/08/23 08:17:39;;;;;;;8.73;3.10;;;;;;;19.82;65.17;102580.28;5095383;28;20889;-81
2021/08/23 08:20:08;;;;;;;4.50;2.80;;;;;;;20.03;65.52;102577.91;5094705;28;20242;-81
2021/08/23 08:22:35;;;;;;;7.00;3.13;;;;;;;20.74;63.08;102577.25;5090825;28;20297;-79
2021/08/23 08:25:04;;;;;;;6.90;3.13;;;;;;;21.00;62.61;102583.06;5091439;28;20696;-81
2021/08/23 08:27:30;;;;;;;3.60;2.70;;;;;;;21.48;60.79;102568.78;5090975;28;20211;-79
2021/08/23 08:29:56;;;;;;;3.80;2.87;;;;;;;21.10;62.16;102569.63;5089617;28;20627;-79
2021/08/23 08:32:23;;;;;;;4.07;2.80;;;;;;;20.59;63.66;102577.03;5087190;28;20209;-79
2021/08/23 08:34:50;;;;;;;4.73;2.60;;;;;;;21.19;61.90;102580.84;5088579;28;20527;-79
2021/08/23 08:37:16;;;;;;;6.00;2.80;;;;;;;20.98;62.76;102586.03;5087913;28;20220;-78
2021/08/23 08:39:42;;;;;;;5.70;2.70;;;;;;;21.73;60.72;102577.22;5088457;28;20221;-78
2021/08/23 08:42:10;;;;;;;6.10;2.90;;;;;;;21.36;61.79;102589.84;5093167;28;20217;-81
2021/08/23 08:44:37;;;;;;;5.40;2.77;;;;;;;21.07;61.97;102579.06;5092273;28;20266;-81
2021/08/23 08:47:04;;;;;;;6.60;2.77;;;;;;;21.66;59.27;102582.03;5091944;28;20351;-79
2021/08/23 08:49:31;;;;;;;3.20;2.43;;;;;;;21.32;59.99;102581.34;5087421;28;20217;-79
2021/08/23 08:51:57;;;;;;;5.83;2.30;;;;;;;20.83;61.40;102596.66;5089503;28;21487;-80
2021/08/23 08:54:24;;;;;;;3.40;2.60;;;;;;;21.80;58.94;102592.50;5097047;28;20237;-81
2021/08/23 08:56:50;;;;;;;5.37;2.50;;;;;;;22.38;56.67;102593.66;5094340;28;20211;-80
2021/08/23 08:59:18;;;;;;;3.37;2.20;;;;;;;22.57;57.74;102598.44;5091542;28;20217;-81
2021/08/23 09:01:45;;;;;;;5.53;2.50;;;;;;;22.58;55.01;102600.09;5090180;28;20214;-80
2021/08/23 09:04:11;;;;;;;4.17;2.40;;;;;;;21.90;58.30;102604.34;5092914;28;20249;-80
2021/08/23 09:06:40;;;;;;;4.47;2.33;;;;;;;22.58;56.63;102599.25;5090085;28;20241;-80
2021/08/23 09:09:11;;;;;;;6.27;2.87;;;;;;;22.64;56.37;102597.41;5090719;28;20851;-79
2021/08/23 09:11:38;;;;;;;6.73;3.13;;;;;;;22.14;58.87;102604.06;5088514;28;20247;-80
2021/08/23 09:14:07;;;;;;;6.73;2.80;;;;;;;21.11;61.00;102604.69;5089669;28;20233;-80
2021/08/23 09:16:38;;;;;;;6.13;2.80;;;;;;;20.86;62.19;102609.75;5087464;28;20320;-79
2021/08/23 09:19:05;;;;;;;4.87;2.47;;;;;;;21.26;61.46;102606.84;5087873;28;20258;-79
2021/08/23 09:21:33;;;;;;;3.53;2.40;;;;;;;21.06;60.84;102611.94;5086463;28;20239;-79
2021/08/23 09:24:00;;;;;;;3.20;2.50;;;;;;;21.38;59.83;102612.97;5092496;28;20615;-80
2021/08/23 09:26:31;;;;;;;4.53;3.10;;;;;;;21.46;60.72;102608.97;5088732;28;20233;-79
2021/08/23 09:28:58;;;;;;;3.60;2.57;;;;;;;21.51;59.84;102617.22;5088002;28;20284;-79
2021/08/23 09:31:26;;;;;;;5.93;2.50;;;;;;;21.04;62.07;102616.81;5088033;28;20271;-80
2021/08/23 09:33:57;;;;;;;4.20;2.43;;;;;;;22.10;58.59;102609.19;5091347;28;20607;-80
2021/08/23 09:36:24;;;;;;;6.13;2.67;;;;;;;21.74;59.66;102608.78;5087130;28;20262;-79
2021/08/23 09:38:58;;;;;;;4.53;2.80;;;;;;;21.35;60.80;102608.03;5086972;28;20308;-78
2021/08/23 09:41:25;;;;;;;6.13;3.37;;;;;;;20.93;61.50;102609.56;5087567;28;20211;-79
2021/08/23 09:43:59;;;;;;;2.97;1.90;;;;;;;21.86;57.71;102618.72;5084739;28;21067;-79
2021/08/23 09:46:25;;;;;;;6.47;3.10;;;;;;;22.19;56.18;102613.09;5084748;28;20225;-79
2021/08/23 09:48:54;;;;;;;6.47;2.57;;;;;;;21.89;57.95;102620.94;5084351;28;20549;-77
2021/08/23 09:51:28;;;;;;;5.93;2.70;;;;;;;22.96;57.43;102613.72;5083665;28;20756;-78
2021/08/23 09:54:05;;;;;;;5.47;2.53;;;;;;;22.92;55.09;102618.06;5082630;28;20233;-78
2021/08/23 09:56:33;;;;;;;5.93;2.30;;;;;;;22.48;57.38;102620.97;5085404;28;20245;-79
2021/08/23 09:59:00;;;;;;;4.10;2.50;;;;;;;22.73;55.50;102617.63;5084439;28;20213;-77
2021/08/23 10:01:26;;;;;;;3.80;1.97;;;;;;;22.22;56.81;102617.19;5079192;28;20213;-78
2021/08/23 10:03:54;;;;;;;3.87;2.17;;;;;;;22.77;55.10;102625.03;5082218;28;20221;-80
2021/08/23 10:06:21;;;;;;;6.67;2.60;;;;;;;22.21;56.69;102624.53;5085526;28;20233;-79
2021/08/23 10:08:48;;;;;;;4.73;2.20;;;;;;;22.32;56.81;102615.41;5088383;28;20226;-77
2021/08/23 10:11:15;;;;;;;3.93;2.30;;;;;;;21.92;58.37;102614.97;5083395;28;20218;-77
2021/08/23 10:13:42;;;;;;;5.73;2.90;;;;;;;21.55;57.89;102615.63;5084116;28;20214;-80
2021/08/23 10:16:09;;;;;;;4.83;2.10;;;;;;;22.12;58.20;102617.13;5085912;28;20227;-80
2021/08/23 10:18:35;;;;;;;2.80;1.87;;;;;;;22.12;57.68;102623.38;5086445;28;20241;-80
2021/08/23 10:21:07;;;;;;;4.67;2.30;;;;;;;22.18;57.26;102616.06;5087992;28;20370;-80
2021/08/23 10:23:34;;;;;;;4.17;2.03;;;;;;;22.30;56.19;102620.28;5090437;28;20292;-80
2021/08/23 10:26:01;;;;;;;3.97;2.03;;;;;;;22.66;56.31;102623.31;5090102;28;20715;-80
2021/08/23 10:28:36;;;;;;;3.10;2.20;;;;;;;23.83;53.46;102621.25;5092493;28;20209;-79
2021/08/23 10:31:06;;;;;;;3.17;2.00;;;;;;;23.74;53.43;102626.41;5092212;28;20205;-80
2021/08/23 10:33:36;;;;;;;6.57;2.20;;;;;;;23.99;51.84;102619.38;5089376;28;20310;-80
2021/08/23 10:36:07;;;;;;;3.50;2.00;;;;;;;24.25;52.84;102623.78;5091005;28;20211;-80
2021/08/23 10:38:33;;;;;;;4.87;2.07;;;;;;;23.80;53.68;102634.63;5092946;28;20234;-80
2021/08/23 10:41:07;;;;;;;2.30;1.73;;;;;;;24.05;50.70;102621.88;5093367;28;20214;-80
2021/08/23 10:43:47;;;;;;;4.07;1.90;;;;;;;24.16;51.65;102630.09;5091452;28;20274;-80
2021/08/23 10:46:24;;;;;;;3.10;2.40;;;;;;;25.27;51.15;102634.69;5090282;28;20785;-80
2021/08/23 10:48:51;;;;;;;6.87;3.00;;;;;;;25.08;50.58;102631.75;5087605;28;20208;-79
2021/08/23 10:51:32;;;;;;;5.27;2.53;;;;;;;24.42;51.49;102631.78;5086936;28;21587;-79
2021/08/23 10:53:59;;;;;;;8.50;2.80;;;;;;;23.33;56.76;102636.31;5087347;28;20234;-79
2021/08/23 10:56:35;;;;;;;6.27;2.80;;;;;;;23.28;55.98;102632.75;5091366;28;20654;-80
2021/08/23 10:59:12;;;;;;;2.90;2.13;;;;;;;24.22;52.95;102629.81;5087130;28;20212;-79
2021/08/23 11:01:38;;;;;;;7.23;3.07;;;;;;;23.97;53.69;102624.28;5085284;28;20784;-80
2021/08/23 11:04:06;;;;;;;3.80;2.33;;;;;;;23.88;55.34;102632.19;5087266;28;20208;-80
2021/08/23 11:06:35;;;;;;;3.83;2.30;;;;;;;24.33;51.42;102631.50;5086013;28;20247;-80
2021/08/23 11:09:09;;;;;;;4.27;2.23;;;;;;;22.84;55.66;102631.09;5084424;28;20685;-79
2021/08/23 11:11:36;;;;;;;3.27;1.60;;;;;;;23.69;50.42;102625.59;5086053;28;20336;-79
2021/08/23 11:14:03;;;;;;;3.63;1.70;;;;;;;24.65;45.49;102628.50;5087467;28;20232;-80
2021/08/23 11:16:31;;;;;;;2.60;1.70;;;;;;;24.70;43.12;102624.94;5088922;28;20230;-82
2021/08/23 11:19:04;;;;;;;2.97;1.60;;;;;;;25.14;43.09;102625.13;5084860;28;20248;-80